sensor_id;sensor_type;location;lat;lon;timestamp;P1;durP1;ratioP1;P2;durP2;ratioP2
67640;SDS011;54434;50.096;20.082;2023-04-25T00:00:12;28.80;;;19.40;;
67640;SDS011;54434;50.096;20.082;2023-04-25T00:03:09;29.10;;;19.70;;
67640;SDS011;54434;50.096;20.082;2023-04-25T00:05:47;28.70;;;20.00;;
67640;SDS011;54434;50.096;20.082;2023-04-25T00:08:25;28.40;;;19.70;;
67640;SDS011;54434;50.096;20.082;2023-04-25T00:11:01;30.60;;;20.70;;
67640;SDS011;54434;50.096;20.082;2023-04-25T00:13:38;31.90;;;21.30;;
67640;SDS011;54434;50.096;20.082;2023-04-25T00:16:15;32.50;;;21.80;;
67640;SDS011;54434;50.096;20.082;2023-04-25T00:18:52;33.20;;;21.70;;
67640;SDS011;54434;50.096;20.082;2023-04-25T00:21:28;35.60;;;23.30;;
67640;SDS011;54434;50.096;20.082;2023-04-25T00:24:07;34.20;;;21.90;;
67640;SDS011;54434;50.096;20.082;2023-04-25T00:26:43;36.00;;;23.10;;
67640;SDS011;54434;50.096;20.082;2023-04-25T00:29:19;33.40;;;21.80;;
67640;SDS011;54434;50.096;20.082;2023-04-25T00:31:55;32.40;;;22.20;;
67640;SDS011;54434;50.096;20.082;2023-04-25T00:34:32;24.20;;;15.90;;
67640;SDS011;54434;50.096;20.082;2023-04-25T00:37:09;19.70;;;13.00;;
67640;SDS011;54434;50.096;20.082;2023-04-25T00:39:45;15.00;;;9.50;;
67640;SDS011;54434;50.096;20.082;2023-04-25T00:42:22;10.90;;;7.70;;
67640;SDS011;54434;50.096;20.082;2023-04-25T00:44:59;9.50;;;6.10;;
67640;SDS011;54434;50.096;20.082;2023-04-25T00:47:39;7.20;;;4.40;;
67640;SDS011;54434;50.096;20.082;2023-04-25T00:50:16;6.80;;;3.80;;
67640;SDS011;54434;50.096;20.082;2023-04-25T00:52:55;6.70;;;3.40;;
67640;SDS011;54434;50.096;20.082;2023-04-25T00:55:32;5.80;;;3.00;;
67640;SDS011;54434;50.096;20.082;2023-04-25T00:58:09;4.80;;;2.40;;
67640;SDS011;54434;50.096;20.082;2023-04-25T01:00:47;4.10;;;2.30;;
67640;SDS011;54434;50.096;20.082;2023-04-25T01:03:25;3.80;;;2.30;;
67640;SDS011;54434;50.096;20.082;2023-04-25T01:06:03;4.20;;;2.20;;
67640;SDS011;54434;50.096;20.082;2023-04-25T01:08:40;4.30;;;2.00;;
67640;SDS011;54434;50.096;20.082;2023-04-25T01:11:17;3.50;;;2.00;;
67640;SDS011;54434;50.096;20.082;2023-04-25T01:13:53;3.60;;;2.20;;
67640;SDS011;54434;50.096;20.082;2023-04-25T01:16:31;3.10;;;1.90;;
67640;SDS011;54434;50.096;20.082;2023-04-25T01:19:12;3.50;;;1.90;;
67640;SDS011;54434;50.096;20.082;2023-04-25T01:21:53;2.90;;;1.80;;
67640;SDS011;54434;50.096;20.082;2023-04-25T01:24:29;2.80;;;1.90;;
67640;SDS011;54434;50.096;20.082;2023-04-25T01:27:07;3.20;;;1.90;;
67640;SDS011;54434;50.096;20.082;2023-04-25T01:29:45;3.40;;;2.10;;
67640;SDS011;54434;50.096;20.082;2023-04-25T01:32:22;3.20;;;2.10;;
67640;SDS011;54434;50.096;20.082;2023-04-25T01:35:00;3.50;;;2.10;;
67640;SDS011;54434;50.096;20.082;2023-04-25T01:37:38;3.50;;;2.00;;
67640;SDS011;54434;50.096;20.082;2023-04-25T01:40:16;3.80;;;2.10;;
67640;SDS011;54434;50.096;20.082;2023-04-25T01:42:56;3.10;;;2.10;;
67640;SDS011;54434;50.096;20.082;2023-04-25T01:45:32;3.30;;;2.10;;
67640;SDS011;54434;50.096;20.082;2023-04-25T01:48:11;4.40;;;2.00;;
67640;SDS011;54434;50.096;20.082;2023-04-25T01:50:49;3.90;;;2.30;;
67640;SDS011;54434;50.096;20.082;2023-04-25T01:53:26;4.40;;;2.30;;
67640;SDS011;54434;50.096;20.082;2023-04-25T01:56:03;3.50;;;2.30;;
67640;SDS011;54434;50.096;20.082;2023-04-25T01:58:41;4.00;;;2.10;;
67640;SDS011;54434;50.096;20.082;2023-04-25T02:01:58;6.20;;;2.30;;
67640;SDS011;54434;50.096;20.082;2023-04-25T02:04:37;3.30;;;2.40;;
67640;SDS011;54434;50.096;20.082;2023-04-25T02:07:14;3.70;;;2.50;;
67640;SDS011;54434;50.096;20.082;2023-04-25T02:09:55;5.70;;;2.70;;
67640;SDS011;54434;50.096;20.082;2023-04-25T02:12:34;4.00;;;2.40;;
67640;SDS011;54434;50.096;20.082;2023-04-25T02:15:52;5.10;;;2.70;;
67640;SDS011;54434;50.096;20.082;2023-04-25T02:18:28;3.90;;;2.60;;
67640;SDS011;54434;50.096;20.082;2023-04-25T02:21:06;3.70;;;2.50;;
67640;SDS011;54434;50.096;20.082;2023-04-25T02:23:42;5.30;;;2.70;;
67640;SDS011;54434;50.096;20.082;2023-04-25T02:26:22;4.00;;;2.80;;
67640;SDS011;54434;50.096;20.082;2023-04-25T02:28:59;5.60;;;2.70;;
67640;SDS011;54434;50.096;20.082;2023-04-25T02:31:35;5.00;;;2.60;;
67640;SDS011;54434;50.096;20.082;2023-04-25T02:34:12;7.20;;;2.90;;
67640;SDS011;54434;50.096;20.082;2023-04-25T02:36:49;4.40;;;2.60;;
67640;SDS011;54434;50.096;20.082;2023-04-25T02:39:25;4.50;;;2.90;;
67640;SDS011;54434;50.096;20.082;2023-04-25T02:42:02;6.80;;;3.00;;
67640;SDS011;54434;50.096;20.082;2023-04-25T02:44:39;4.90;;;2.80;;
67640;SDS011;54434;50.096;20.082;2023-04-25T02:47:15;5.70;;;3.00;;
67640;SDS011;54434;50.096;20.082;2023-04-25T02:49:52;5.40;;;3.20;;
67640;SDS011;54434;50.096;20.082;2023-04-25T02:52:28;5.10;;;3.10;;
67640;SDS011;54434;50.096;20.082;2023-04-25T02:55:12;5.70;;;3.50;;
67640;SDS011;54434;50.096;20.082;2023-04-25T02:57:49;5.80;;;3.20;;
67640;SDS011;54434;50.096;20.082;2023-04-25T03:00:35;6.30;;;3.30;;
67640;SDS011;54434;50.096;20.082;2023-04-25T03:03:11;5.90;;;3.50;;
67640;SDS011;54434;50.096;20.082;2023-04-25T03:05:51;6.80;;;3.80;;
67640;SDS011;54434;50.096;20.082;2023-04-25T03:08:31;6.80;;;4.20;;
67640;SDS011;54434;50.096;20.082;2023-04-25T03:11:08;6.70;;;3.90;;
67640;SDS011;54434;50.096;20.082;2023-04-25T03:13:44;6.10;;;3.70;;
67640;SDS011;54434;50.096;20.082;2023-04-25T03:16:21;7.80;;;4.20;;
67640;SDS011;54434;50.096;20.082;2023-04-25T03:18:58;8.60;;;4.40;;
67640;SDS011;54434;50.096;20.082;2023-04-25T03:21:36;6.10;;;4.00;;
67640;SDS011;54434;50.096;20.082;2023-04-25T03:24:13;7.90;;;4.30;;
67640;SDS011;54434;50.096;20.082;2023-04-25T03:26:50;7.20;;;4.40;;
67640;SDS011;54434;50.096;20.082;2023-04-25T03:29:26;6.80;;;4.50;;
67640;SDS011;54434;50.096;20.082;2023-04-25T03:32:03;6.30;;;4.30;;
67640;SDS011;54434;50.096;20.082;2023-04-25T03:34:40;6.00;;;4.30;;
67640;SDS011;54434;50.096;20.082;2023-04-25T03:37:16;7.60;;;4.90;;
67640;SDS011;54434;50.096;20.082;2023-04-25T03:39:52;8.10;;;4.50;;
67640;SDS011;54434;50.096;20.082;2023-04-25T03:42:30;7.90;;;4.60;;
67640;SDS011;54434;50.096;20.082;2023-04-25T03:45:10;8.60;;;4.20;;
67640;SDS011;54434;50.096;20.082;2023-04-25T03:47:46;10.20;;;5.00;;
67640;SDS011;54434;50.096;20.082;2023-04-25T03:50:23;7.10;;;4.70;;
67640;SDS011;54434;50.096;20.082;2023-04-25T03:53:02;7.70;;;4.90;;
67640;SDS011;54434;50.096;20.082;2023-04-25T03:55:51;8.10;;;4.80;;
67640;SDS011;54434;50.096;20.082;2023-04-25T03:58:28;7.00;;;4.50;;
67640;SDS011;54434;50.096;20.082;2023-04-25T04:01:04;9.30;;;4.40;;
67640;SDS011;54434;50.096;20.082;2023-04-25T04:03:42;6.60;;;4.20;;
67640;SDS011;54434;50.096;20.082;2023-04-25T04:06:19;6.70;;;4.30;;
67640;SDS011;54434;50.096;20.082;2023-04-25T04:09:00;7.60;;;4.70;;
67640;SDS011;54434;50.096;20.082;2023-04-25T04:11:40;7.50;;;4.80;;
67640;SDS011;54434;50.096;20.082;2023-04-25T04:14:17;6.80;;;4.20;;
67640;SDS011;54434;50.096;20.082;2023-04-25T04:16:55;8.00;;;4.80;;
67640;SDS011;54434;50.096;20.082;2023-04-25T04:19:31;7.40;;;4.80;;
67640;SDS011;54434;50.096;20.082;2023-04-25T04:22:15;8.30;;;5.00;;
67640;SDS011;54434;50.096;20.082;2023-04-25T04:24:53;8.80;;;5.30;;
67640;SDS011;54434;50.096;20.082;2023-04-25T04:28:11;8.10;;;5.40;;
67640;SDS011;54434;50.096;20.082;2023-04-25T04:30:55;9.30;;;5.40;;
67640;SDS011;54434;50.096;20.082;2023-04-25T04:33:35;9.10;;;5.60;;
67640;SDS011;54434;50.096;20.082;2023-04-25T04:36:13;8.80;;;5.10;;
67640;SDS011;54434;50.096;20.082;2023-04-25T04:38:53;7.40;;;4.80;;
67640;SDS011;54434;50.096;20.082;2023-04-25T04:41:41;5.90;;;4.30;;
67640;SDS011;54434;50.096;20.082;2023-04-25T04:44:36;7.30;;;4.50;;
67640;SDS011;54434;50.096;20.082;2023-04-25T04:47:19;7.50;;;4.50;;
67640;SDS011;54434;50.096;20.082;2023-04-25T04:50:10;7.30;;;4.50;;
67640;SDS011;54434;50.096;20.082;2023-04-25T04:53:05;7.70;;;4.70;;
67640;SDS011;54434;50.096;20.082;2023-04-25T04:56:06;7.30;;;4.40;;
67640;SDS011;54434;50.096;20.082;2023-04-25T04:59:11;7.50;;;4.60;;
67640;SDS011;54434;50.096;20.082;2023-04-25T05:02:06;9.10;;;4.80;;
67640;SDS011;54434;50.096;20.082;2023-04-25T05:04:58;9.10;;;5.30;;
67640;SDS011;54434;50.096;20.082;2023-04-25T05:08:02;8.60;;;5.50;;
67640;SDS011;54434;50.096;20.082;2023-04-25T05:11:28;11.10;;;6.00;;
67640;SDS011;54434;50.096;20.082;2023-04-25T05:17:32;8.80;;;5.80;;
67640;SDS011;54434;50.096;20.082;2023-04-25T05:20:51;10.00;;;6.30;;
67640;SDS011;54434;50.096;20.082;2023-04-25T05:23:41;10.60;;;6.80;;
67640;SDS011;54434;50.096;20.082;2023-04-25T05:26:36;9.90;;;7.10;;
67640;SDS011;54434;50.096;20.082;2023-04-25T05:29:28;10.10;;;6.90;;
67640;SDS011;54434;50.096;20.082;2023-04-25T05:32:30;10.50;;;6.90;;
67640;SDS011;54434;50.096;20.082;2023-04-25T05:35:07;10.50;;;7.10;;
67640;SDS011;54434;50.096;20.082;2023-04-25T05:37:51;12.20;;;7.20;;
67640;SDS011;54434;50.096;20.082;2023-04-25T05:40:39;10.60;;;6.50;;
67640;SDS011;54434;50.096;20.082;2023-04-25T05:43:35;9.60;;;6.80;;
67640;SDS011;54434;50.096;20.082;2023-04-25T05:46:27;11.20;;;5.60;;
67640;SDS011;54434;50.096;20.082;2023-04-25T05:49:57;9.70;;;6.30;;
67640;SDS011;54434;50.096;20.082;2023-04-25T05:52:49;7.30;;;4.40;;
67640;SDS011;54434;50.096;20.082;2023-04-25T05:55:41;6.40;;;4.40;;
67640;SDS011;54434;50.096;20.082;2023-04-25T05:58:34;8.90;;;4.70;;
67640;SDS011;54434;50.096;20.082;2023-04-25T06:01:11;10.20;;;4.30;;
67640;SDS011;54434;50.096;20.082;2023-04-25T06:03:48;7.30;;;3.70;;
67640;SDS011;54434;50.096;20.082;2023-04-25T06:06:27;7.20;;;3.60;;
67640;SDS011;54434;50.096;20.082;2023-04-25T06:09:04;5.70;;;3.50;;
67640;SDS011;54434;50.096;20.082;2023-04-25T06:11:41;5.90;;;3.50;;
67640;SDS011;54434;50.096;20.082;2023-04-25T06:14:17;6.70;;;3.50;;
67640;SDS011;54434;50.096;20.082;2023-04-25T06:16:55;8.60;;;3.20;;
67640;SDS011;54434;50.096;20.082;2023-04-25T06:19:32;4.80;;;3.10;;
67640;SDS011;54434;50.096;20.082;2023-04-25T06:22:10;5.60;;;3.00;;
67640;SDS011;54434;50.096;20.082;2023-04-25T06:24:46;6.50;;;3.00;;
67640;SDS011;54434;50.096;20.082;2023-04-25T06:27:23;5.30;;;3.20;;
67640;SDS011;54434;50.096;20.082;2023-04-25T06:29:59;6.30;;;3.30;;
67640;SDS011;54434;50.096;20.082;2023-04-25T06:32:36;6.10;;;3.10;;
67640;SDS011;54434;50.096;20.082;2023-04-25T06:35:13;5.10;;;3.10;;
67640;SDS011;54434;50.096;20.082;2023-04-25T06:37:50;5.30;;;3.10;;
67640;SDS011;54434;50.096;20.082;2023-04-25T06:40:28;5.30;;;2.90;;
67640;SDS011;54434;50.096;20.082;2023-04-25T06:43:04;5.30;;;2.80;;
67640;SDS011;54434;50.096;20.082;2023-04-25T06:45:55;7.80;;;2.90;;
67640;SDS011;54434;50.096;20.082;2023-04-25T06:48:33;3.70;;;2.20;;
67640;SDS011;54434;50.096;20.082;2023-04-25T06:51:10;3.20;;;2.10;;
67640;SDS011;54434;50.096;20.082;2023-04-25T06:53:48;4.80;;;2.30;;
67640;SDS011;54434;50.096;20.082;2023-04-25T06:56:31;4.60;;;2.50;;
67640;SDS011;54434;50.096;20.082;2023-04-25T06:59:12;5.40;;;2.50;;
67640;SDS011;54434;50.096;20.082;2023-04-25T07:01:51;5.50;;;2.40;;
67640;SDS011;54434;50.096;20.082;2023-04-25T07:04:30;5.30;;;2.70;;
67640;SDS011;54434;50.096;20.082;2023-04-25T07:07:07;3.80;;;2.50;;
67640;SDS011;54434;50.096;20.082;2023-04-25T07:12:24;4.70;;;2.50;;
67640;SDS011;54434;50.096;20.082;2023-04-25T07:15:01;5.20;;;2.70;;
67640;SDS011;54434;50.096;20.082;2023-04-25T07:17:40;4.60;;;2.80;;
67640;SDS011;54434;50.096;20.082;2023-04-25T07:20:16;4.10;;;2.60;;
67640;SDS011;54434;50.096;20.082;2023-04-25T07:22:54;8.80;;;3.00;;
67640;SDS011;54434;50.096;20.082;2023-04-25T07:25:31;6.20;;;3.10;;
67640;SDS011;54434;50.096;20.082;2023-04-25T07:28:09;5.30;;;2.90;;
67640;SDS011;54434;50.096;20.082;2023-04-25T07:30:45;4.60;;;2.70;;
67640;SDS011;54434;50.096;20.082;2023-04-25T07:33:22;5.80;;;3.00;;
67640;SDS011;54434;50.096;20.082;2023-04-25T07:35:58;7.70;;;3.30;;
67640;SDS011;54434;50.096;20.082;2023-04-25T07:38:36;6.00;;;3.10;;
67640;SDS011;54434;50.096;20.082;2023-04-25T07:41:12;5.50;;;3.40;;
67640;SDS011;54434;50.096;20.082;2023-04-25T07:43:48;5.90;;;3.30;;
67640;SDS011;54434;50.096;20.082;2023-04-25T07:46:25;5.70;;;3.00;;
67640;SDS011;54434;50.096;20.082;2023-04-25T07:49:02;7.10;;;3.60;;
67640;SDS011;54434;50.096;20.082;2023-04-25T07:51:39;4.90;;;3.10;;
67640;SDS011;54434;50.096;20.082;2023-04-25T07:54:20;5.20;;;3.20;;
67640;SDS011;54434;50.096;20.082;2023-04-25T07:57:01;4.10;;;2.90;;
67640;SDS011;54434;50.096;20.082;2023-04-25T07:59:40;5.40;;;2.90;;
67640;SDS011;54434;50.096;20.082;2023-04-25T08:02:16;5.30;;;2.70;;
67640;SDS011;54434;50.096;20.082;2023-04-25T08:04:53;4.50;;;2.70;;
67640;SDS011;54434;50.096;20.082;2023-04-25T08:07:30;4.10;;;2.40;;
67640;SDS011;54434;50.096;20.082;2023-04-25T08:10:10;4.00;;;2.60;;
67640;SDS011;54434;50.096;20.082;2023-04-25T08:12:47;4.30;;;2.70;;
67640;SDS011;54434;50.096;20.082;2023-04-25T08:15:24;8.00;;;4.30;;
67640;SDS011;54434;50.096;20.082;2023-04-25T08:18:00;5.70;;;2.90;;
67640;SDS011;54434;50.096;20.082;2023-04-25T08:20:37;3.80;;;2.50;;
67640;SDS011;54434;50.096;20.082;2023-04-25T08:23:15;6.00;;;2.70;;
67640;SDS011;54434;50.096;20.082;2023-04-25T08:26:10;4.20;;;2.50;;
67640;SDS011;54434;50.096;20.082;2023-04-25T08:28:48;6.10;;;2.70;;
67640;SDS011;54434;50.096;20.082;2023-04-25T08:31:25;20.70;;;9.80;;
67640;SDS011;54434;50.096;20.082;2023-04-25T08:34:06;8.60;;;4.60;;
67640;SDS011;54434;50.096;20.082;2023-04-25T08:36:49;4.80;;;2.70;;
67640;SDS011;54434;50.096;20.082;2023-04-25T08:39:43;5.70;;;2.70;;
67640;SDS011;54434;50.096;20.082;2023-04-25T08:42:31;4.30;;;2.90;;
67640;SDS011;54434;50.096;20.082;2023-04-25T08:45:11;5.50;;;2.80;;
67640;SDS011;54434;50.096;20.082;2023-04-25T08:47:49;3.90;;;2.50;;
67640;SDS011;54434;50.096;20.082;2023-04-25T08:50:31;4.60;;;2.60;;
67640;SDS011;54434;50.096;20.082;2023-04-25T08:53:10;5.30;;;2.70;;
67640;SDS011;54434;50.096;20.082;2023-04-25T08:55:54;8.00;;;3.60;;
67640;SDS011;54434;50.096;20.082;2023-04-25T08:58:33;8.50;;;5.30;;
67640;SDS011;54434;50.096;20.082;2023-04-25T09:01:10;5.40;;;2.70;;
67640;SDS011;54434;50.096;20.082;2023-04-25T09:03:52;5.50;;;3.00;;
67640;SDS011;54434;50.096;20.082;2023-04-25T09:06:30;5.50;;;3.10;;
67640;SDS011;54434;50.096;20.082;2023-04-25T09:09:09;6.00;;;3.10;;
67640;SDS011;54434;50.096;20.082;2023-04-25T09:11:46;7.90;;;3.10;;
67640;SDS011;54434;50.096;20.082;2023-04-25T09:14:25;5.10;;;3.00;;
67640;SDS011;54434;50.096;20.082;2023-04-25T09:17:10;6.70;;;3.50;;
67640;SDS011;54434;50.096;20.082;2023-04-25T09:19:55;8.00;;;3.50;;
67640;SDS011;54434;50.096;20.082;2023-04-25T09:22:42;4.80;;;3.10;;
67640;SDS011;54434;50.096;20.082;2023-04-25T09:25:22;9.30;;;3.10;;
67640;SDS011;54434;50.096;20.082;2023-04-25T09:27:59;16.80;;;7.40;;
67640;SDS011;54434;50.096;20.082;2023-04-25T09:30:40;6.30;;;2.90;;
67640;SDS011;54434;50.096;20.082;2023-04-25T09:33:28;4.70;;;2.80;;
67640;SDS011;54434;50.096;20.082;2023-04-25T09:36:08;4.80;;;2.50;;
67640;SDS011;54434;50.096;20.082;2023-04-25T09:39:13;4.30;;;2.80;;
67640;SDS011;54434;50.096;20.082;2023-04-25T09:41:58;5.60;;;3.00;;
67640;SDS011;54434;50.096;20.082;2023-04-25T09:44:35;6.80;;;2.90;;
67640;SDS011;54434;50.096;20.082;2023-04-25T09:47:17;8.00;;;2.80;;
67640;SDS011;54434;50.096;20.082;2023-04-25T09:49:55;6.90;;;3.10;;
67640;SDS011;54434;50.096;20.082;2023-04-25T09:52:32;5.50;;;2.80;;
67640;SDS011;54434;50.096;20.082;2023-04-25T09:55:19;6.60;;;2.90;;
67640;SDS011;54434;50.096;20.082;2023-04-25T09:57:58;4.70;;;2.60;;
67640;SDS011;54434;50.096;20.082;2023-04-25T10:00:39;4.20;;;2.90;;
67640;SDS011;54434;50.096;20.082;2023-04-25T10:03:26;4.70;;;2.80;;
67640;SDS011;54434;50.096;20.082;2023-04-25T10:06:24;5.70;;;2.70;;
67640;SDS011;54434;50.096;20.082;2023-04-25T10:09:02;4.90;;;2.60;;
67640;SDS011;54434;50.096;20.082;2023-04-25T10:11:41;8.60;;;5.80;;
67640;SDS011;54434;50.096;20.082;2023-04-25T10:14:20;6.30;;;3.30;;
67640;SDS011;54434;50.096;20.082;2023-04-25T10:16:58;4.80;;;2.80;;
67640;SDS011;54434;50.096;20.082;2023-04-25T10:19:36;13.00;;;2.90;;
67640;SDS011;54434;50.096;20.082;2023-04-25T10:22:20;4.60;;;2.70;;
67640;SDS011;54434;50.096;20.082;2023-04-25T10:25:05;4.10;;;2.50;;
67640;SDS011;54434;50.096;20.082;2023-04-25T10:27:43;6.70;;;2.60;;
67640;SDS011;54434;50.096;20.082;2023-04-25T10:30:19;3.40;;;2.40;;
67640;SDS011;54434;50.096;20.082;2023-04-25T10:32:56;4.50;;;2.30;;
67640;SDS011;54434;50.096;20.082;2023-04-25T10:35:35;4.90;;;2.50;;
67640;SDS011;54434;50.096;20.082;2023-04-25T10:38:15;4.30;;;2.50;;
67640;SDS011;54434;50.096;20.082;2023-04-25T10:41:07;4.00;;;2.30;;
67640;SDS011;54434;50.096;20.082;2023-04-25T10:43:46;4.40;;;2.30;;
67640;SDS011;54434;50.096;20.082;2023-04-25T10:46:27;3.70;;;2.60;;
67640;SDS011;54434;50.096;20.082;2023-04-25T10:49:05;3.50;;;2.20;;
67640;SDS011;54434;50.096;20.082;2023-04-25T10:51:47;4.50;;;2.40;;
67640;SDS011;54434;50.096;20.082;2023-04-25T10:54:28;3.70;;;2.30;;
67640;SDS011;54434;50.096;20.082;2023-04-25T10:57:05;4.80;;;2.70;;
67640;SDS011;54434;50.096;20.082;2023-04-25T10:59:41;4.30;;;2.50;;
67640;SDS011;54434;50.096;20.082;2023-04-25T11:02:17;4.90;;;2.80;;
67640;SDS011;54434;50.096;20.082;2023-04-25T11:04:54;9.10;;;5.30;;
67640;SDS011;54434;50.096;20.082;2023-04-25T11:07:43;4.80;;;2.60;;
67640;SDS011;54434;50.096;20.082;2023-04-25T11:10:41;4.30;;;2.50;;
67640;SDS011;54434;50.096;20.082;2023-04-25T11:13:21;5.70;;;2.60;;
67640;SDS011;54434;50.096;20.082;2023-04-25T11:16:07;4.10;;;2.40;;
67640;SDS011;54434;50.096;20.082;2023-04-25T11:18:50;4.70;;;2.60;;
67640;SDS011;54434;50.096;20.082;2023-04-25T11:21:27;4.20;;;2.60;;
67640;SDS011;54434;50.096;20.082;2023-04-25T11:24:06;5.40;;;2.70;;
67640;SDS011;54434;50.096;20.082;2023-04-25T11:26:44;5.00;;;2.70;;
67640;SDS011;54434;50.096;20.082;2023-04-25T11:29:24;4.90;;;2.70;;
67640;SDS011;54434;50.096;20.082;2023-04-25T11:32:02;4.50;;;2.80;;
67640;SDS011;54434;50.096;20.082;2023-04-25T11:34:39;4.50;;;2.70;;
67640;SDS011;54434;50.096;20.082;2023-04-25T11:37:19;7.40;;;3.10;;
67640;SDS011;54434;50.096;20.082;2023-04-25T11:39:55;5.90;;;3.10;;
67640;SDS011;54434;50.096;20.082;2023-04-25T11:42:32;6.60;;;2.80;;
67640;SDS011;54434;50.096;20.082;2023-04-25T11:45:10;25.30;;;4.70;;
67640;SDS011;54434;50.096;20.082;2023-04-25T11:47:47;20.30;;;4.20;;
67640;SDS011;54434;50.096;20.082;2023-04-25T11:50:26;5.50;;;3.10;;
67640;SDS011;54434;50.096;20.082;2023-04-25T11:53:04;5.20;;;3.00;;
67640;SDS011;54434;50.096;20.082;2023-04-25T11:55:41;6.30;;;3.20;;
67640;SDS011;54434;50.096;20.082;2023-04-25T11:58:17;6.70;;;3.20;;
67640;SDS011;54434;50.096;20.082;2023-04-25T12:00:54;7.50;;;3.00;;
67640;SDS011;54434;50.096;20.082;2023-04-25T12:03:32;5.40;;;3.10;;
67640;SDS011;54434;50.096;20.082;2023-04-25T12:06:20;5.50;;;3.30;;
67640;SDS011;54434;50.096;20.082;2023-04-25T12:09:06;23.70;;;13.00;;
67640;SDS011;54434;50.096;20.082;2023-04-25T12:11:48;7.40;;;4.20;;
67640;SDS011;54434;50.096;20.082;2023-04-25T12:14:30;5.60;;;3.50;;
67640;SDS011;54434;50.096;20.082;2023-04-25T12:17:08;5.70;;;3.50;;
67640;SDS011;54434;50.096;20.082;2023-04-25T12:19:48;6.90;;;3.40;;
67640;SDS011;54434;50.096;20.082;2023-04-25T12:22:25;5.50;;;3.50;;
67640;SDS011;54434;50.096;20.082;2023-04-25T12:25:04;6.70;;;3.90;;
67640;SDS011;54434;50.096;20.082;2023-04-25T12:27:41;6.00;;;3.40;;
67640;SDS011;54434;50.096;20.082;2023-04-25T12:30:17;7.10;;;3.60;;
67640;SDS011;54434;50.096;20.082;2023-04-25T12:32:54;7.20;;;3.70;;
67640;SDS011;54434;50.096;20.082;2023-04-25T12:35:30;6.50;;;3.20;;
67640;SDS011;54434;50.096;20.082;2023-04-25T12:38:08;5.30;;;3.20;;
67640;SDS011;54434;50.096;20.082;2023-04-25T12:40:44;6.70;;;3.40;;
67640;SDS011;54434;50.096;20.082;2023-04-25T12:43:21;6.30;;;3.70;;
67640;SDS011;54434;50.096;20.082;2023-04-25T12:45:58;6.40;;;3.80;;
67640;SDS011;54434;50.096;20.082;2023-04-25T12:48:34;6.80;;;3.90;;
67640;SDS011;54434;50.096;20.082;2023-04-25T12:51:11;7.00;;;3.60;;
67640;SDS011;54434;50.096;20.082;2023-04-25T12:53:48;5.90;;;3.30;;
67640;SDS011;54434;50.096;20.082;2023-04-25T12:56:24;5.70;;;3.80;;
67640;SDS011;54434;50.096;20.082;2023-04-25T12:59:01;6.30;;;4.00;;
67640;SDS011;54434;50.096;20.082;2023-04-25T13:01:37;5.70;;;3.50;;
67640;SDS011;54434;50.096;20.082;2023-04-25T13:04:14;5.90;;;3.30;;
67640;SDS011;54434;50.096;20.082;2023-04-25T13:06:51;5.20;;;3.10;;
67640;SDS011;54434;50.096;20.082;2023-04-25T13:09:28;7.00;;;4.00;;
67640;SDS011;54434;50.096;20.082;2023-04-25T13:12:05;6.10;;;3.90;;
67640;SDS011;54434;50.096;20.082;2023-04-25T13:14:42;6.80;;;3.90;;
67640;SDS011;54434;50.096;20.082;2023-04-25T13:17:18;7.80;;;4.20;;
67640;SDS011;54434;50.096;20.082;2023-04-25T13:19:54;7.20;;;4.10;;
67640;SDS011;54434;50.096;20.082;2023-04-25T13:22:31;7.20;;;3.90;;
67640;SDS011;54434;50.096;20.082;2023-04-25T13:25:08;6.10;;;3.10;;
67640;SDS011;54434;50.096;20.082;2023-04-25T13:27:45;6.00;;;3.00;;
67640;SDS011;54434;50.096;20.082;2023-04-25T13:30:22;5.80;;;3.30;;
67640;SDS011;54434;50.096;20.082;2023-04-25T13:32:58;6.00;;;2.90;;
67640;SDS011;54434;50.096;20.082;2023-04-25T13:35:37;6.00;;;3.00;;
67640;SDS011;54434;50.096;20.082;2023-04-25T13:38:14;5.90;;;3.10;;
67640;SDS011;54434;50.096;20.082;2023-04-25T13:40:51;5.60;;;3.20;;
67640;SDS011;54434;50.096;20.082;2023-04-25T13:43:28;6.20;;;3.00;;
67640;SDS011;54434;50.096;20.082;2023-04-25T13:46:07;5.70;;;2.90;;
67640;SDS011;54434;50.096;20.082;2023-04-25T13:49:05;6.30;;;3.70;;
67640;SDS011;54434;50.096;20.082;2023-04-25T13:51:45;6.00;;;3.20;;
67640;SDS011;54434;50.096;20.082;2023-04-25T13:54:22;8.30;;;3.30;;
67640;SDS011;54434;50.096;20.082;2023-04-25T13:56:58;5.60;;;3.60;;
67640;SDS011;54434;50.096;20.082;2023-04-25T13:59:35;5.70;;;3.10;;
67640;SDS011;54434;50.096;20.082;2023-04-25T14:02:12;5.40;;;3.40;;
67640;SDS011;54434;50.096;20.082;2023-04-25T14:04:49;6.10;;;3.10;;
67640;SDS011;54434;50.096;20.082;2023-04-25T14:07:26;7.20;;;3.70;;
67640;SDS011;54434;50.096;20.082;2023-04-25T14:10:04;6.50;;;3.10;;
67640;SDS011;54434;50.096;20.082;2023-04-25T14:12:41;5.10;;;3.20;;
67640;SDS011;54434;50.096;20.082;2023-04-25T14:15:18;8.60;;;3.70;;
67640;SDS011;54434;50.096;20.082;2023-04-25T14:17:54;8.60;;;3.50;;
67640;SDS011;54434;50.096;20.082;2023-04-25T14:20:31;9.30;;;4.50;;
67640;SDS011;54434;50.096;20.082;2023-04-25T14:23:08;6.30;;;4.00;;
67640;SDS011;54434;50.096;20.082;2023-04-25T14:25:45;6.80;;;4.20;;
67640;SDS011;54434;50.096;20.082;2023-04-25T14:28:22;6.00;;;4.40;;
67640;SDS011;54434;50.096;20.082;2023-04-25T14:30:58;8.40;;;4.50;;
67640;SDS011;54434;50.096;20.082;2023-04-25T14:33:35;7.40;;;4.50;;
67640;SDS011;54434;50.096;20.082;2023-04-25T14:36:15;11.50;;;6.50;;
67640;SDS011;54434;50.096;20.082;2023-04-25T14:38:51;7.60;;;4.30;;
67640;SDS011;54434;50.096;20.082;2023-04-25T14:41:28;8.20;;;4.30;;
67640;SDS011;54434;50.096;20.082;2023-04-25T14:44:05;7.00;;;4.20;;
67640;SDS011;54434;50.096;20.082;2023-04-25T14:46:41;7.70;;;4.10;;
67640;SDS011;54434;50.096;20.082;2023-04-25T14:49:18;6.80;;;3.40;;
67640;SDS011;54434;50.096;20.082;2023-04-25T14:51:55;6.80;;;3.40;;
67640;SDS011;54434;50.096;20.082;2023-04-25T14:54:31;9.90;;;5.00;;
67640;SDS011;54434;50.096;20.082;2023-04-25T14:57:08;9.70;;;5.10;;
67640;SDS011;54434;50.096;20.082;2023-04-25T14:59:44;10.70;;;5.90;;
67640;SDS011;54434;50.096;20.082;2023-04-25T15:02:21;9.10;;;5.50;;
67640;SDS011;54434;50.096;20.082;2023-04-25T15:04:58;11.80;;;5.40;;
67640;SDS011;54434;50.096;20.082;2023-04-25T15:07:35;8.20;;;5.20;;
67640;SDS011;54434;50.096;20.082;2023-04-25T15:10:13;11.70;;;5.60;;
67640;SDS011;54434;50.096;20.082;2023-04-25T15:12:51;8.80;;;5.40;;
67640;SDS011;54434;50.096;20.082;2023-04-25T15:15:28;9.70;;;5.80;;
67640;SDS011;54434;50.096;20.082;2023-04-25T15:18:06;8.30;;;5.80;;
67640;SDS011;54434;50.096;20.082;2023-04-25T15:20:42;8.40;;;5.50;;
67640;SDS011;54434;50.096;20.082;2023-04-25T15:23:20;8.90;;;5.40;;
67640;SDS011;54434;50.096;20.082;2023-04-25T15:25:59;11.20;;;6.00;;
67640;SDS011;54434;50.096;20.082;2023-04-25T15:28:36;10.30;;;5.10;;
67640;SDS011;54434;50.096;20.082;2023-04-25T15:31:12;9.40;;;4.60;;
67640;SDS011;54434;50.096;20.082;2023-04-25T15:33:49;6.20;;;3.40;;
67640;SDS011;54434;50.096;20.082;2023-04-25T15:36:26;7.10;;;3.50;;
67640;SDS011;54434;50.096;20.082;2023-04-25T15:39:02;6.70;;;3.30;;
67640;SDS011;54434;50.096;20.082;2023-04-25T15:41:42;5.80;;;3.20;;
67640;SDS011;54434;50.096;20.082;2023-04-25T15:44:18;8.00;;;3.20;;
67640;SDS011;54434;50.096;20.082;2023-04-25T15:46:54;5.50;;;3.10;;
67640;SDS011;54434;50.096;20.082;2023-04-25T15:49:31;6.60;;;3.10;;
67640;SDS011;54434;50.096;20.082;2023-04-25T15:52:07;8.90;;;3.40;;
67640;SDS011;54434;50.096;20.082;2023-04-25T15:54:43;16.60;;;9.40;;